sensor_id;sensor_type;location;lat;lon;timestamp;temperature;humidity
52615;DHT22;38508;53.158;6.614;2022-12-10T00:01:50;1.60;99.90
52615;DHT22;38508;53.158;6.614;2022-12-10T00:04:18;1.70;99.90
52615;DHT22;38508;53.158;6.614;2022-12-10T00:06:44;1.60;99.90
52615;DHT22;38508;53.158;6.614;2022-12-10T00:09:15;1.60;99.90
52615;DHT22;38508;53.158;6.614;2022-12-10T00:11:41;1.60;99.90
52615;DHT22;38508;53.158;6.614;2022-12-10T00:14:07;1.60;99.90
52615;DHT22;38508;53.158;6.614;2022-12-10T00:16:33;1.60;99.90
52615;DHT22;38508;53.158;6.614;2022-12-10T00:19:00;1.60;99.90
52615;DHT22;38508;53.158;6.614;2022-12-10T00:21:28;1.70;99.90
52615;DHT22;38508;53.158;6.614;2022-12-10T00:23:54;1.60;99.90
52615;DHT22;38508;53.158;6.614;2022-12-10T00:26:35;1.60;99.90
52615;DHT22;38508;53.158;6.614;2022-12-10T00:29:03;1.60;99.90
52615;DHT22;38508;53.158;6.614;2022-12-10T00:31:31;1.70;99.90
52615;DHT22;38508;53.158;6.614;2022-12-10T00:34:01;1.70;99.90
52615;DHT22;38508;53.158;6.614;2022-12-10T00:36:33;1.60;99.90
52615;DHT22;38508;53.158;6.614;2022-12-10T00:38:59;1.50;99.80
52615;DHT22;38508;53.158;6.614;2022-12-10T00:41:25;1.60;99.90
52615;DHT22;38508;53.158;6.614;2022-12-10T00:43:51;1.50;99.90
52615;DHT22;38508;53.158;6.614;2022-12-10T00:46:18;1.60;99.90
52615;DHT22;38508;53.158;6.614;2022-12-10T00:48:44;1.60;99.90
52615;DHT22;38508;53.158;6.614;2022-12-10T00:51:18;1.50;99.90
52615;DHT22;38508;53.158;6.614;2022-12-10T00:53:46;1.60;99.90
52615;DHT22;38508;53.158;6.614;2022-12-10T00:56:14;1.50;99.90
52615;DHT22;38508;53.158;6.614;2022-12-10T00:58:40;1.50;99.90
52615;DHT22;38508;53.158;6.614;2022-12-10T01:03:51;1.60;99.90
52615;DHT22;38508;53.158;6.614;2022-12-10T01:06:25;1.60;99.90
52615;DHT22;38508;53.158;6.614;2022-12-10T01:08:53;1.50;99.80
52615;DHT22;38508;53.158;6.614;2022-12-10T01:11:21;1.50;99.90
52615;DHT22;38508;53.158;6.614;2022-12-10T01:13:48;1.50;99.90
52615;DHT22;38508;53.158;6.614;2022-12-10T01:16:16;1.50;99.90
52615;DHT22;38508;53.158;6.614;2022-12-10T01:18:42;1.50;99.90
52615;DHT22;38508;53.158;6.614;2022-12-10T01:21:11;1.50;99.90
52615;DHT22;38508;53.158;6.614;2022-12-10T01:23:39;1.50;99.90
52615;DHT22;38508;53.158;6.614;2022-12-10T01:26:07;1.60;99.90
52615;DHT22;38508;53.158;6.614;2022-12-10T01:28:35;1.60;99.90
52615;DHT22;38508;53.158;6.614;2022-12-10T01:31:13;1.60;99.90
52615;DHT22;38508;53.158;6.614;2022-12-10T01:33:40;1.60;99.90
52615;DHT22;38508;53.158;6.614;2022-12-10T01:36:12;1.60;99.90
52615;DHT22;38508;53.158;6.614;2022-12-10T01:38:38;1.70;99.90
52615;DHT22;38508;53.158;6.614;2022-12-10T01:41:04;1.60;99.70
52615;DHT22;38508;53.158;6.614;2022-12-10T01:43:53;1.60;99.70
52615;DHT22;38508;53.158;6.614;2022-12-10T01:46:20;1.60;99.90
52615;DHT22;38508;53.158;6.614;2022-12-10T01:48:46;1.60;99.90
52615;DHT22;38508;53.158;6.614;2022-12-10T01:51:14;1.60;99.90
52615;DHT22;38508;53.158;6.614;2022-12-10T01:53:40;1.60;99.80
52615;DHT22;38508;53.158;6.614;2022-12-10T01:56:08;1.50;99.90
52615;DHT22;38508;53.158;6.614;2022-12-10T01:58:34;1.60;99.90
52615;DHT22;38508;53.158;6.614;2022-12-10T02:01:32;1.60;99.90
52615;DHT22;38508;53.158;6.614;2022-12-10T02:06:54;1.60;99.90
52615;DHT22;38508;53.158;6.614;2022-12-10T02:09:23;1.60;99.90
52615;DHT22;38508;53.158;6.614;2022-12-10T02:14:22;1.70;99.90
52615;DHT22;38508;53.158;6.614;2022-12-10T02:19:54;1.60;99.90
52615;DHT22;38508;53.158;6.614;2022-12-10T02:22:23;1.60;99.90
52615;DHT22;38508;53.158;6.614;2022-12-10T02:24:51;1.60;99.90
52615;DHT22;38508;53.158;6.614;2022-12-10T02:30:05;1.60;99.90
52615;DHT22;38508;53.158;6.614;2022-12-10T02:32:37;1.50;99.80
52615;DHT22;38508;53.158;6.614;2022-12-10T02:35:11;1.40;99.90
52615;DHT22;38508;53.158;6.614;2022-12-10T02:37:47;1.40;99.90
52615;DHT22;38508;53.158;6.614;2022-12-10T02:40:19;1.50;99.90
52615;DHT22;38508;53.158;6.614;2022-12-10T02:42:48;1.30;99.90
52615;DHT22;38508;53.158;6.614;2022-12-10T02:45:16;1.20;99.90
52615;DHT22;38508;53.158;6.614;2022-12-10T02:47:42;1.00;99.90
52615;DHT22;38508;53.158;6.614;2022-12-10T02:50:10;1.00;99.90
52615;DHT22;38508;53.158;6.614;2022-12-10T02:52:37;1.10;99.90
52615;DHT22;38508;53.158;6.614;2022-12-10T02:55:02;1.10;99.90
52615;DHT22;38508;53.158;6.614;2022-12-10T03:00:16;1.20;99.90
52615;DHT22;38508;53.158;6.614;2022-12-10T03:05:24;1.20;99.90
52615;DHT22;38508;53.158;6.614;2022-12-10T03:08:08;1.20;99.90
52615;DHT22;38508;53.158;6.614;2022-12-10T03:13:15;1.20;99.90
52615;DHT22;38508;53.158;6.614;2022-12-10T03:15:42;1.30;99.90
52615;DHT22;38508;53.158;6.614;2022-12-10T03:18:11;1.40;99.90
52615;DHT22;38508;53.158;6.614;2022-12-10T03:20:40;1.40;99.90
52615;DHT22;38508;53.158;6.614;2022-12-10T03:23:10;1.50;99.90
52615;DHT22;38508;53.158;6.614;2022-12-10T03:25:37;1.60;99.90
52615;DHT22;38508;53.158;6.614;2022-12-10T03:28:05;1.60;99.90
52615;DHT22;38508;53.158;6.614;2022-12-10T03:30:32;1.50;99.90
52615;DHT22;38508;53.158;6.614;2022-12-10T03:32:59;1.30;99.90
52615;DHT22;38508;53.158;6.614;2022-12-10T03:35:25;1.20;99.90
52615;DHT22;38508;53.158;6.614;2022-12-10T03:37:52;1.30;99.90
52615;DHT22;38508;53.158;6.614;2022-12-10T03:40:21;1.30;99.90
52615;DHT22;38508;53.158;6.614;2022-12-10T03:42:47;1.40;99.90
52615;DHT22;38508;53.158;6.614;2022-12-10T03:45:13;1.30;99.90
52615;DHT22;38508;53.158;6.614;2022-12-10T03:47:40;1.30;99.90
52615;DHT22;38508;53.158;6.614;2022-12-10T03:50:06;1.30;99.90
52615;DHT22;38508;53.158;6.614;2022-12-10T03:52:33;1.30;99.90
52615;DHT22;38508;53.158;6.614;2022-12-10T03:54:59;1.40;99.90
52615;DHT22;38508;53.158;6.614;2022-12-10T03:57:25;1.50;99.90
52615;DHT22;38508;53.158;6.614;2022-12-10T03:59:50;1.50;99.90
52615;DHT22;38508;53.158;6.614;2022-12-10T04:02:16;1.50;99.90
52615;DHT22;38508;53.158;6.614;2022-12-10T04:04:42;1.50;99.90
52615;DHT22;38508;53.158;6.614;2022-12-10T04:07:08;1.50;99.90
52615;DHT22;38508;53.158;6.614;2022-12-10T04:09:34;1.40;99.90
52615;DHT22;38508;53.158;6.614;2022-12-10T04:12:00;1.40;99.90
52615;DHT22;38508;53.158;6.614;2022-12-10T04:14:26;1.40;99.90
52615;DHT22;38508;53.158;6.614;2022-12-10T04:17:11;1.40;99.90
52615;DHT22;38508;53.158;6.614;2022-12-10T04:19:37;1.40;99.90
52615;DHT22;38508;53.158;6.614;2022-12-10T04:22:03;1.40;99.90
52615;DHT22;38508;53.158;6.614;2022-12-10T04:24:47;1.40;99.90
52615;DHT22;38508;53.158;6.614;2022-12-10T04:27:51;1.30;99.60
52615;DHT22;38508;53.158;6.614;2022-12-10T04:30:17;1.10;99.50
52615;DHT22;38508;53.158;6.614;2022-12-10T04:32:43;1.00;99.60
52615;DHT22;38508;53.158;6.614;2022-12-10T04:35:09;0.80;99.40
52615;DHT22;38508;53.158;6.614;2022-12-10T04:37:35;0.70;99.70
52615;DHT22;38508;53.158;6.614;2022-12-10T04:40:01;0.80;99.90
52615;DHT22;38508;53.158;6.614;2022-12-10T04:42:27;0.80;99.90
52615;DHT22;38508;53.158;6.614;2022-12-10T04:44:52;0.80;99.80
52615;DHT22;38508;53.158;6.614;2022-12-10T04:47:18;0.70;99.70
52615;DHT22;38508;53.158;6.614;2022-12-10T04:49:44;0.70;99.90
52615;DHT22;38508;53.158;6.614;2022-12-10T04:52:12;0.70;99.80
52615;DHT22;38508;53.158;6.614;2022-12-10T04:54:37;0.50;99.60
52615;DHT22;38508;53.158;6.614;2022-12-10T04:57:03;0.60;99.90
52615;DHT22;38508;53.158;6.614;2022-12-10T04:59:29;0.60;99.90
52615;DHT22;38508;53.158;6.614;2022-12-10T05:01:55;0.70;99.90
52615;DHT22;38508;53.158;6.614;2022-12-10T05:04:20;0.90;99.90
52615;DHT22;38508;53.158;6.614;2022-12-10T05:06:48;0.80;99.90
52615;DHT22;38508;53.158;6.614;2022-12-10T05:09:14;0.70;99.70
52615;DHT22;38508;53.158;6.614;2022-12-10T05:11:40;0.70;99.80
52615;DHT22;38508;53.158;6.614;2022-12-10T05:14:06;0.70;99.90
52615;DHT22;38508;53.158;6.614;2022-12-10T05:16:33;0.80;99.90
52615;DHT22;38508;53.158;6.614;2022-12-10T05:18:59;0.90;99.90
52615;DHT22;38508;53.158;6.614;2022-12-10T05:21:26;0.90;99.90
52615;DHT22;38508;53.158;6.614;2022-12-10T05:24:13;0.90;99.70
52615;DHT22;38508;53.158;6.614;2022-12-10T05:26:39;0.90;99.80
52615;DHT22;38508;53.158;6.614;2022-12-10T05:29:05;0.90;99.80
52615;DHT22;38508;53.158;6.614;2022-12-10T05:31:31;0.80;99.80
52615;DHT22;38508;53.158;6.614;2022-12-10T05:33:58;0.80;99.90
52615;DHT22;38508;53.158;6.614;2022-12-10T05:36:27;0.90;99.90
52615;DHT22;38508;53.158;6.614;2022-12-10T05:38:54;0.90;99.90
52615;DHT22;38508;53.158;6.614;2022-12-10T05:41:23;1.00;99.90
52615;DHT22;38508;53.158;6.614;2022-12-10T05:43:50;1.00;99.90
52615;DHT22;38508;53.158;6.614;2022-12-10T05:46:19;1.20;99.90
52615;DHT22;38508;53.158;6.614;2022-12-10T05:48:45;1.20;99.90
52615;DHT22;38508;53.158;6.614;2022-12-10T05:51:14;1.30;99.90
52615;DHT22;38508;53.158;6.614;2022-12-10T05:53:40;1.30;99.90
52615;DHT22;38508;53.158;6.614;2022-12-10T05:56:12;1.20;99.90
52615;DHT22;38508;53.158;6.614;2022-12-10T05:58:40;1.20;99.90
52615;DHT22;38508;53.158;6.614;2022-12-10T06:01:08;1.20;99.90
52615;DHT22;38508;53.158;6.614;2022-12-10T06:03:34;1.10;99.90
52615;DHT22;38508;53.158;6.614;2022-12-10T06:06:00;1.10;99.90
52615;DHT22;38508;53.158;6.614;2022-12-10T06:08:25;1.20;99.90
52615;DHT22;38508;53.158;6.614;2022-12-10T06:10:51;1.30;99.90
52615;DHT22;38508;53.158;6.614;2022-12-10T06:13:17;1.40;99.90
52615;DHT22;38508;53.158;6.614;2022-12-10T06:15:43;1.40;99.90
52615;DHT22;38508;53.158;6.614;2022-12-10T06:18:08;1.10;99.90
52615;DHT22;38508;53.158;6.614;2022-12-10T06:20:38;1.10;99.90
52615;DHT22;38508;53.158;6.614;2022-12-10T06:23:05;0.90;99.90
52615;DHT22;38508;53.158;6.614;2022-12-10T06:25:30;0.80;99.90
52615;DHT22;38508;53.158;6.614;2022-12-10T06:27:56;0.70;99.90
52615;DHT22;38508;53.158;6.614;2022-12-10T06:30:22;0.70;99.90
52615;DHT22;38508;53.158;6.614;2022-12-10T06:32:47;0.80;99.90
52615;DHT22;38508;53.158;6.614;2022-12-10T06:35:13;0.90;99.90
52615;DHT22;38508;53.158;6.614;2022-12-10T06:37:42;0.90;99.90
52615;DHT22;38508;53.158;6.614;2022-12-10T06:40:07;1.00;99.90
52615;DHT22;38508;53.158;6.614;2022-12-10T06:42:33;1.10;99.90
52615;DHT22;38508;53.158;6.614;2022-12-10T06:44:59;1.00;99.90
52615;DHT22;38508;53.158;6.614;2022-12-10T06:47:25;1.00;99.90
52615;DHT22;38508;53.158;6.614;2022-12-10T06:49:51;1.00;99.90
52615;DHT22;38508;53.158;6.614;2022-12-10T06:52:16;1.10;99.90
52615;DHT22;38508;53.158;6.614;2022-12-10T06:54:42;1.10;99.90
52615;DHT22;38508;53.158;6.614;2022-12-10T06:57:08;1.10;99.90
52615;DHT22;38508;53.158;6.614;2022-12-10T06:59:34;1.20;99.90
52615;DHT22;38508;53.158;6.614;2022-12-10T07:01:59;0.90;99.90
52615;DHT22;38508;53.158;6.614;2022-12-10T07:04:25;0.80;99.90
52615;DHT22;38508;53.158;6.614;2022-12-10T07:06:51;0.70;99.90
52615;DHT22;38508;53.158;6.614;2022-12-10T07:09:17;0.30;99.90
52615;DHT22;38508;53.158;6.614;2022-12-10T07:11:42;0.20;99.90
52615;DHT22;38508;53.158;6.614;2022-12-10T07:14:13;0.30;99.90
52615;DHT22;38508;53.158;6.614;2022-12-10T07:16:39;0.50;99.90
52615;DHT22;38508;53.158;6.614;2022-12-10T07:19:05;0.40;99.90
52615;DHT22;38508;53.158;6.614;2022-12-10T07:21:33;0.20;99.90
52615;DHT22;38508;53.158;6.614;2022-12-10T07:24:01;0.10;99.90
52615;DHT22;38508;53.158;6.614;2022-12-10T07:26:29;0.00;99.90
52615;DHT22;38508;53.158;6.614;2022-12-10T07:28:55;0.10;99.90
52615;DHT22;38508;53.158;6.614;2022-12-10T07:31:22;0.30;99.90
52615;DHT22;38508;53.158;6.614;2022-12-10T07:33:49;0.30;99.90
52615;DHT22;38508;53.158;6.614;2022-12-10T07:36:15;0.50;99.90
52615;DHT22;38508;53.158;6.614;2022-12-10T07:38:41;0.60;99.90
52615;DHT22;38508;53.158;6.614;2022-12-10T07:41:09;0.70;99.90
52615;DHT22;38508;53.158;6.614;2022-12-10T07:43:38;0.60;99.90
52615;DHT22;38508;53.158;6.614;2022-12-10T07:46:12;0.50;99.90
52615;DHT22;38508;53.158;6.614;2022-12-10T07:48:39;0.50;99.90
52615;DHT22;38508;53.158;6.614;2022-12-10T07:51:05;0.30;99.90
52615;DHT22;38508;53.158;6.614;2022-12-10T07:53:32;0.30;99.90
52615;DHT22;38508;53.158;6.614;2022-12-10T07:55:58;0.40;99.90
52615;DHT22;38508;53.158;6.614;2022-12-10T07:58:24;0.20;99.90
52615;DHT22;38508;53.158;6.614;2022-12-10T08:00:50;-0.20;99.90
52615;DHT22;38508;53.158;6.614;2022-12-10T08:03:15;-0.30;99.90
52615;DHT22;38508;53.158;6.614;2022-12-10T08:05:41;-0.30;99.90
52615;DHT22;38508;53.158;6.614;2022-12-10T08:08:07;-0.60;99.90
52615;DHT22;38508;53.158;6.614;2022-12-10T08:10:37;-0.50;99.90
52615;DHT22;38508;53.158;6.614;2022-12-10T08:13:03;-0.40;99.90
52615;DHT22;38508;53.158;6.614;2022-12-10T08:15:29;-0.10;99.90
52615;DHT22;38508;53.158;6.614;2022-12-10T08:17:56;-0.10;99.90
52615;DHT22;38508;53.158;6.614;2022-12-10T08:20:22;-0.20;99.90
52615;DHT22;38508;53.158;6.614;2022-12-10T08:22:48;-0.30;99.90
52615;DHT22;38508;53.158;6.614;2022-12-10T08:25:14;-0.30;99.90
52615;DHT22;38508;53.158;6.614;2022-12-10T08:27:40;-0.30;99.90
52615;DHT22;38508;53.158;6.614;2022-12-10T08:30:06;-0.10;99.90
52615;DHT22;38508;53.158;6.614;2022-12-10T08:32:32;0.00;99.90
52615;DHT22;38508;53.158;6.614;2022-12-10T08:34:58;-0.10;99.90
52615;DHT22;38508;53.158;6.614;2022-12-10T08:37:23;-0.10;99.90
52615;DHT22;38508;53.158;6.614;2022-12-10T08:39:50;0.00;99.90
52615;DHT22;38508;53.158;6.614;2022-12-10T08:42:26;-0.10;99.90
52615;DHT22;38508;53.158;6.614;2022-12-10T08:44:52;0.00;99.90
52615;DHT22;38508;53.158;6.614;2022-12-10T08:47:17;0.30;99.90
52615;DHT22;38508;53.158;6.614;2022-12-10T08:49:43;0.50;99.90
52615;DHT22;38508;53.158;6.614;2022-12-10T08:52:10;0.50;99.90
52615;DHT22;38508;53.158;6.614;2022-12-10T08:54:35;0.70;99.90
52615;DHT22;38508;53.158;6.614;2022-12-10T08:57:01;0.90;99.90
52615;DHT22;38508;53.158;6.614;2022-12-10T08:59:27;1.00;99.90
52615;DHT22;38508;53.158;6.614;2022-12-10T09:01:52;1.10;99.90
52615;DHT22;38508;53.158;6.614;2022-12-10T09:04:18;1.20;99.90
52615;DHT22;38508;53.158;6.614;2022-12-10T09:06:44;1.00;99.90
52615;DHT22;38508;53.158;6.614;2022-12-10T09:09:10;0.90;99.90
52615;DHT22;38508;53.158;6.614;2022-12-10T09:11:35;0.90;99.90
52615;DHT22;38508;53.158;6.614;2022-12-10T09:14:01;1.00;99.90
52615;DHT22;38508;53.158;6.614;2022-12-10T09:16:35;1.10;99.90
52615;DHT22;38508;53.158;6.614;2022-12-10T09:19:03;0.90;99.90
52615;DHT22;38508;53.158;6.614;2022-12-10T09:21:29;0.90;99.90
52615;DHT22;38508;53.158;6.614;2022-12-10T09:23:56;1.00;99.90
52615;DHT22;38508;53.158;6.614;2022-12-10T09:26:22;1.10;99.90
52615;DHT22;38508;53.158;6.614;2022-12-10T09:28:48;1.10;99.90
52615;DHT22;38508;53.158;6.614;2022-12-10T09:31:16;1.20;99.90
52615;DHT22;38508;53.158;6.614;2022-12-10T09:33:42;1.30;99.90
52615;DHT22;38508;53.158;6.614;2022-12-10T09:36:10;1.20;99.90
52615;DHT22;38508;53.158;6.614;2022-12-10T09:38:41;0.90;99.90
52615;DHT22;38508;53.158;6.614;2022-12-10T09:41:36;0.80;99.90
52615;DHT22;38508;53.158;6.614;2022-12-10T09:46:58;0.60;99.90
52615;DHT22;38508;53.158;6.614;2022-12-10T09:52:08;0.60;99.90
52615;DHT22;38508;53.158;6.614;2022-12-10T09:54:43;0.70;99.90
52615;DHT22;38508;53.158;6.614;2022-12-10T09:57:29;0.60;99.90
52615;DHT22;38508;53.158;6.614;2022-12-10T09:59:56;0.80;99.90
52615;DHT22;38508;53.158;6.614;2022-12-10T10:02:30;0.70;99.90
52615;DHT22;38508;53.158;6.614;2022-12-10T10:07:42;1.00;99.90
52615;DHT22;38508;53.158;6.614;2022-12-10T10:12:58;1.40;99.90
52615;DHT22;38508;53.158;6.614;2022-12-10T10:15:33;1.50;99.90
52615;DHT22;38508;53.158;6.614;2022-12-10T10:18:52;1.60;99.90
52615;DHT22;38508;53.158;6.614;2022-12-10T10:21:25;1.70;99.90
52615;DHT22;38508;53.158;6.614;2022-12-10T10:23:51;1.70;99.90
52615;DHT22;38508;53.158;6.614;2022-12-10T10:26:17;1.70;99.90
52615;DHT22;38508;53.158;6.614;2022-12-10T10:28:43;1.70;99.90
52615;DHT22;38508;53.158;6.614;2022-12-10T10:31:31;1.60;99.90
52615;DHT22;38508;53.158;6.614;2022-12-10T10:34:00;1.70;99.90
52615;DHT22;38508;53.158;6.614;2022-12-10T10:36:30;1.60;99.90
52615;DHT22;38508;53.158;6.614;2022-12-10T10:38:59;1.50;99.90
52615;DHT22;38508;53.158;6.614;2022-12-10T10:41:36;1.50;99.90
52615;DHT22;38508;53.158;6.614;2022-12-10T10:44:11;1.50;99.90
52615;DHT22;38508;53.158;6.614;2022-12-10T10:46:38;1.60;99.90
52615;DHT22;38508;53.158;6.614;2022-12-10T10:49:34;1.60;99.90
52615;DHT22;38508;53.158;6.614;2022-12-10T10:52:16;1.50;99.90
52615;DHT22;38508;53.158;6.614;2022-12-10T10:54:43;1.60;99.90
52615;DHT22;38508;53.158;6.614;2022-12-10T10:57:14;1.60;99.90
52615;DHT22;38508;53.158;6.614;2022-12-10T10:59:42;1.70;99.90
52615;DHT22;38508;53.158;6.614;2022-12-10T11:02:36;1.60;99.90
52615;DHT22;38508;53.158;6.614;2022-12-10T11:05:25;1.80;99.90
52615;DHT22;38508;53.158;6.614;2022-12-10T11:08:06;1.90;99.90
52615;DHT22;38508;53.158;6.614;2022-12-10T11:10:33;2.00;99.90
52615;DHT22;38508;53.158;6.614;2022-12-10T11:13:07;2.00;99.90
52615;DHT22;38508;53.158;6.614;2022-12-10T11:15:43;1.90;99.90
52615;DHT22;38508;53.158;6.614;2022-12-10T11:21:15;2.00;99.90
52615;DHT22;38508;53.158;6.614;2022-12-10T11:23:46;2.00;99.90
52615;DHT22;38508;53.158;6.614;2022-12-10T11:29:12;2.00;99.90
52615;DHT22;38508;53.158;6.614;2022-12-10T11:34:53;1.80;99.90
52615;DHT22;38508;53.158;6.614;2022-12-10T11:43:05;1.90;99.90
52615;DHT22;38508;53.158;6.614;2022-12-10T11:48:46;1.80;99.90
52615;DHT22;38508;53.158;6.614;2022-12-10T11:51:18;1.90;99.90
52615;DHT22;38508;53.158;6.614;2022-12-10T11:54:23;2.00;99.90
52615;DHT22;38508;53.158;6.614;2022-12-10T11:57:08;2.10;99.90
52615;DHT22;38508;53.158;6.614;2022-12-10T11:59:43;2.10;99.90
52615;DHT22;38508;53.158;6.614;2022-12-10T12:07:35;2.20;99.90
52615;DHT22;38508;53.158;6.614;2022-12-10T12:15:43;1.90;99.90
52615;DHT22;38508;53.158;6.614;2022-12-10T12:21:02;1.90;99.90
52615;DHT22;38508;53.158;6.614;2022-12-10T12:23:56;1.70;99.90
52615;DHT22;38508;53.158;6.614;2022-12-10T12:26:36;1.70;99.90
52615;DHT22;38508;53.158;6.614;2022-12-10T12:29:21;1.80;99.90
52615;DHT22;38508;53.158;6.614;2022-12-10T12:31:59;1.90;99.90
52615;DHT22;38508;53.158;6.614;2022-12-10T12:34:52;2.00;99.90
52615;DHT22;38508;53.158;6.614;2022-12-10T12:37:24;2.10;99.90
52615;DHT22;38508;53.158;6.614;2022-12-10T12:40:03;2.10;99.90
52615;DHT22;38508;53.158;6.614;2022-12-10T12:42:49;2.00;99.90
52615;DHT22;38508;53.158;6.614;2022-12-10T12:48:15;1.80;99.90
52615;DHT22;38508;53.158;6.614;2022-12-10T12:50:48;1.90;99.90
52615;DHT22;38508;53.158;6.614;2022-12-10T12:53:19;2.00;99.90
52615;DHT22;38508;53.158;6.614;2022-12-10T13:00:53;2.20;99.90
52615;DHT22;38508;53.158;6.614;2022-12-10T13:03:29;2.20;99.90
52615;DHT22;38508;53.158;6.614;2022-12-10T13:06:12;2.30;99.90
52615;DHT22;38508;53.158;6.614;2022-12-10T13:08:48;2.30;99.90
52615;DHT22;38508;53.158;6.614;2022-12-10T13:11:34;2.20;99.90
52615;DHT22;38508;53.158;6.614;2022-12-10T13:22:11;1.90;99.90
52615;DHT22;38508;53.158;6.614;2022-12-10T13:29:46;2.10;99.90
52615;DHT22;38508;53.158;6.614;2022-12-10T13:34:46;2.20;99.90
52615;DHT22;38508;53.158;6.614;2022-12-10T13:37:17;2.20;99.90
52615;DHT22;38508;53.158;6.614;2022-12-10T13:39:59;2.30;99.90
52615;DHT22;38508;53.158;6.614;2022-12-10T13:42:31;2.40;99.90
52615;DHT22;38508;53.158;6.614;2022-12-10T13:50:32;2.50;99.90
52615;DHT22;38508;53.158;6.614;2022-12-10T13:56:08;2.40;99.90
52615;DHT22;38508;53.158;6.614;2022-12-10T13:58:42;2.40;99.90
52615;DHT22;38508;53.158;6.614;2022-12-10T14:06:43;2.30;99.90
52615;DHT22;38508;53.158;6.614;2022-12-10T14:09:17;2.40;99.90
52615;DHT22;38508;53.158;6.614;2022-12-10T14:11:58;2.40;99.90
52615;DHT22;38508;53.158;6.614;2022-12-10T14:14:34;2.50;99.90
52615;DHT22;38508;53.158;6.614;2022-12-10T14:17:06;2.80;99.90
52615;DHT22;38508;53.158;6.614;2022-12-10T14:19:36;2.80;99.90
52615;DHT22;38508;53.158;6.614;2022-12-10T14:22:06;2.30;99.90
52615;DHT22;38508;53.158;6.614;2022-12-10T14:24:36;2.00;99.90
52615;DHT22;38508;53.158;6.614;2022-12-10T14:27:15;1.80;99.90
52615;DHT22;38508;53.158;6.614;2022-12-10T14:29:50;1.80;99.90
52615;DHT22;38508;53.158;6.614;2022-12-10T14:32:19;1.80;99.90
52615;DHT22;38508;53.158;6.614;2022-12-10T14:34:54;1.90;99.90
52615;DHT22;38508;53.158;6.614;2022-12-10T14:37:27;2.00;99.90
52615;DHT22;38508;53.158;6.614;2022-12-10T14:39:55;2.10;99.90
52615;DHT22;38508;53.158;6.614;2022-12-10T14:42:21;2.30;99.90
52615;DHT22;38508;53.158;6.614;2022-12-10T14:44:55;2.40;99.90
52615;DHT22;38508;53.158;6.614;2022-12-10T14:47:21;2.40;99.90
52615;DHT22;38508;53.158;6.614;2022-12-10T14:49:50;2.50;99.90
52615;DHT22;38508;53.158;6.614;2022-12-10T14:52:23;2.50;99.90
52615;DHT22;38508;53.158;6.614;2022-12-10T14:54:49;2.40;99.90
52615;DHT22;38508;53.158;6.614;2022-12-10T14:57:38;2.40;99.90
52615;DHT22;38508;53.158;6.614;2022-12-10T15:00:11;2.50;99.90
52615;DHT22;38508;53.158;6.614;2022-12-10T15:02:44;2.60;99.90
52615;DHT22;38508;53.158;6.614;2022-12-10T15:05:20;2.60;99.90
52615;DHT22;38508;53.158;6.614;2022-12-10T15:07:56;2.50;99.90
52615;DHT22;38508;53.158;6.614;2022-12-10T15:10:36;2.50;99.90
52615;DHT22;38508;53.158;6.614;2022-12-10T15:13:03;2.30;99.90
52615;DHT22;38508;53.158;6.614;2022-12-10T15:15:38;2.40;99.90
52615;DHT22;38508;53.158;6.614;2022-12-10T15:23:30;2.40;99.90
52615;DHT22;38508;53.158;6.614;2022-12-10T15:28:30;2.40;99.90
52615;DHT22;38508;53.158;6.614;2022-12-10T15:31:21;2.50;99.90
52615;DHT22;38508;53.158;6.614;2022-12-10T15:33:53;2.50;99.90
52615;DHT22;38508;53.158;6.614;2022-12-10T15:36:22;2.50;99.90
52615;DHT22;38508;53.158;6.614;2022-12-10T15:38:50;2.50;99.90
52615;DHT22;38508;53.158;6.614;2022-12-10T15:41:47;2.50;99.90
52615;DHT22;38508;53.158;6.614;2022-12-10T15:47:12;2.60;99.90
52615;DHT22;38508;53.158;6.614;2022-12-10T15:49:41;2.50;99.90
52615;DHT22;38508;53.158;6.614;2022-12-10T15:52:13;2.30;99.90
52615;DHT22;38508;53.158;6.614;2022-12-10T15:54:41;2.40;99.90
52615;DHT22;38508;53.158;6.614;2022-12-10T15:59:41;2.10;99.90
52615;DHT22;38508;53.158;6.614;2022-12-10T16:02:41;2.20;99.90
52615;DHT22;38508;53.158;6.614;2022-12-10T16:05:22;2.30;99.90
52615;DHT22;38508;53.158;6.614;2022-12-10T16:07:51;2.30;99.90
52615;DHT22;38508;53.158;6.614;2022-12-10T16:10:19;1.90;99.90
52615;DHT22;38508;53.158;6.614;2022-12-10T16:12:49;1.90;99.90
52615;DHT22;38508;53.158;6.614;2022-12-10T16:15:22;1.80;99.90
52615;DHT22;38508;53.158;6.614;2022-12-10T16:17:50;1.60;99.90
52615;DHT22;38508;53.158;6.614;2022-12-10T16:22:48;1.70;99.90
52615;DHT22;38508;53.158;6.614;2022-12-10T16:25:14;1.90;99.90
52615;DHT22;38508;53.158;6.614;2022-12-10T16:27:40;2.00;99.90
52615;DHT22;38508;53.158;6.614;2022-12-10T16:30:33;2.00;99.90
52615;DHT22;38508;53.158;6.614;2022-12-10T16:33:00;1.90;99.90
52615;DHT22;38508;53.158;6.614;2022-12-10T16:35:26;1.80;99.90
52615;DHT22;38508;53.158;6.614;2022-12-10T16:37:52;1.90;99.90
52615;DHT22;38508;53.158;6.614;2022-12-10T16:40:23;2.00;99.90
52615;DHT22;38508;53.158;6.614;2022-12-10T16:42:50;1.80;99.90
52615;DHT22;38508;53.158;6.614;2022-12-10T16:47:54;1.90;99.90
52615;DHT22;38508;53.158;6.614;2022-12-10T16:50:20;1.90;99.90
52615;DHT22;38508;53.158;6.614;2022-12-10T16:52:47;1.90;99.90
52615;DHT22;38508;53.158;6.614;2022-12-10T16:55:18;1.90;99.90
52615;DHT22;38508;53.158;6.614;2022-12-10T16:57:44;2.10;99.90
52615;DHT22;38508;53.158;6.614;2022-12-10T17:00:24;2.10;99.90
52615;DHT22;38508;53.158;6.614;2022-12-10T17:02:50;2.10;99.90
52615;DHT22;38508;53.158;6.614;2022-12-10T17:05:31;1.90;99.90
52615;DHT22;38508;53.158;6.614;2022-12-10T17:07:59;1.70;99.90
52615;DHT22;38508;53.158;6.614;2022-12-10T17:10:25;1.60;99.90
52615;DHT22;38508;53.158;6.614;2022-12-10T17:13:14;1.70;99.90
52615;DHT22;38508;53.158;6.614;2022-12-10T17:15:42;1.90;99.90
52615;DHT22;38508;53.158;6.614;2022-12-10T17:18:12;1.80;99.90
52615;DHT22;38508;53.158;6.614;2022-12-10T17:20:38;1.80;99.90
52615;DHT22;38508;53.158;6.614;2022-12-10T17:23:04;1.80;99.90
52615;DHT22;38508;53.158;6.614;2022-12-10T17:25:30;1.70;99.90
52615;DHT22;38508;53.158;6.614;2022-12-10T17:27:56;1.50;99.90
52615;DHT22;38508;53.158;6.614;2022-12-10T17:30:22;1.60;99.90
52615;DHT22;38508;53.158;6.614;2022-12-10T17:32:49;1.60;99.90
52615;DHT22;38508;53.158;6.614;2022-12-10T17:35:15;1.60;99.90
52615;DHT22;38508;53.158;6.614;2022-12-10T17:37:41;1.60;99.90
52615;DHT22;38508;53.158;6.614;2022-12-10T17:40:17;1.40;99.90
52615;DHT22;38508;53.158;6.614;2022-12-10T17:42:44;1.30;99.90
52615;DHT22;38508;53.158;6.614;2022-12-10T17:45:15;1.40;99.90
52615;DHT22;38508;53.158;6.614;2022-12-10T17:47:41;1.30;99.90
52615;DHT22;38508;53.158;6.614;2022-12-10T17:50:27;1.30;99.90
52615;DHT22;38508;53.158;6.614;2022-12-10T17:52:55;1.60;99.90
52615;DHT22;38508;53.158;6.614;2022-12-10T17:55:20;1.70;99.90
52615;DHT22;38508;53.158;6.614;2022-12-10T17:57:46;1.70;99.90
52615;DHT22;38508;53.158;6.614;2022-12-10T18:00:18;1.60;99.90
52615;DHT22;38508;53.158;6.614;2022-12-10T18:02:45;1.70;99.90
52615;DHT22;38508;53.158;6.614;2022-12-10T18:05:10;1.70;99.90